sensor_id;sensor_type;location;lat;lon;timestamp;pressure;altitude;pressure_sealevel;temperature;humidity
53758;BME280;39674;59.860;30.672;2022-07-06T00:02:28;100999.50;;;15.05;76.42
53758;BME280;39674;59.860;30.672;2022-07-06T00:04:57;101015.91;;;15.12;75.80
53758;BME280;39674;59.860;30.672;2022-07-06T00:07:52;101077.31;;;15.36;76.32
53758;BME280;39674;59.860;30.672;2022-07-06T00:10:30;101074.94;;;15.32;76.46
53758;BME280;39674;59.860;30.672;2022-07-06T00:13:05;101044.41;;;15.10;76.79
53758;BME280;39674;59.860;30.672;2022-07-06T00:15:37;100986.38;;;14.75;75.95
53758;BME280;39674;59.860;30.672;2022-07-06T00:18:18;101079.56;;;15.15;77.54
53758;BME280;39674;59.860;30.672;2022-07-06T00:20:48;101016.25;;;14.66;77.54
53758;BME280;39674;59.860;30.672;2022-07-06T00:23:21;101044.88;;;14.75;78.54
53758;BME280;39674;59.860;30.672;2022-07-06T00:25:51;101009.88;;;14.54;78.60
53758;BME280;39674;59.860;30.672;2022-07-06T00:28:39;100978.69;;;14.28;77.37
53758;BME280;39674;59.860;30.672;2022-07-06T00:31:18;101053.34;;;14.67;78.33
53758;BME280;39674;59.860;30.672;2022-07-06T00:33:58;100985.69;;;14.29;78.11
53758;BME280;39674;59.860;30.672;2022-07-06T00:36:29;101083.03;;;14.88;78.38
53758;BME280;39674;59.860;30.672;2022-07-06T00:38:58;101050.94;;;14.63;78.44
53758;BME280;39674;59.860;30.672;2022-07-06T00:41:37;101016.78;;;14.42;78.73
53758;BME280;39674;59.860;30.672;2022-07-06T00:44:10;100993.09;;;14.24;77.95
53758;BME280;39674;59.860;30.672;2022-07-06T00:46:45;101065.69;;;14.68;76.83
53758;BME280;39674;59.860;30.672;2022-07-06T00:49:37;101044.63;;;14.65;77.79
53758;BME280;39674;59.860;30.672;2022-07-06T00:52:30;101032.19;;;14.51;78.80
53758;BME280;39674;59.860;30.672;2022-07-06T00:55:10;101042.63;;;14.54;78.79
53758;BME280;39674;59.860;30.672;2022-07-06T00:57:45;101041.47;;;14.44;79.92
53758;BME280;39674;59.860;30.672;2022-07-06T01:00:18;101066.81;;;14.64;79.64
53758;BME280;39674;59.860;30.672;2022-07-06T01:02:50;101013.97;;;14.31;80.01
53758;BME280;39674;59.860;30.672;2022-07-06T01:05:32;101001.06;;;14.24;78.61
53758;BME280;39674;59.860;30.672;2022-07-06T01:08:07;101060.75;;;14.62;78.70
53758;BME280;39674;59.860;30.672;2022-07-06T01:10:45;100975.09;;;14.15;79.16
53758;BME280;39674;59.860;30.672;2022-07-06T01:13:17;101043.84;;;14.49;79.43
53758;BME280;39674;59.860;30.672;2022-07-06T01:15:47;101037.88;;;14.45;79.26
53758;BME280;39674;59.860;30.672;2022-07-06T01:18:25;101030.78;;;14.31;78.99
53758;BME280;39674;59.860;30.672;2022-07-06T01:21:15;101105.09;;;14.76;80.00
53758;BME280;39674;59.860;30.672;2022-07-06T01:24:20;101059.25;;;14.43;81.09
53758;BME280;39674;59.860;30.672;2022-07-06T01:27:38;101059.41;;;14.40;80.71
53758;BME280;39674;59.860;30.672;2022-07-06T01:29:55;101060.28;;;14.41;80.28
53758;BME280;39674;59.860;30.672;2022-07-06T01:32:29;101050.78;;;14.37;80.87
53758;BME280;39674;59.860;30.672;2022-07-06T01:35:11;100998.78;;;14.04;81.40
53758;BME280;39674;59.860;30.672;2022-07-06T01:37:59;100998.78;;;14.04;81.37
53758;BME280;39674;59.860;30.672;2022-07-06T01:40:34;101065.41;;;14.44;83.90
53758;BME280;39674;59.860;30.672;2022-07-06T01:43:12;101066.56;;;14.40;84.01
53758;BME280;39674;59.860;30.672;2022-07-06T01:46:15;101111.06;;;14.65;85.49
53758;BME280;39674;59.860;30.672;2022-07-06T01:49:05;101116.66;;;14.60;86.62
53758;BME280;39674;59.860;30.672;2022-07-06T01:51:40;100989.78;;;13.92;86.71
53758;BME280;39674;59.860;30.672;2022-07-06T01:54:44;101024.03;;;14.11;86.41
53758;BME280;39674;59.860;30.672;2022-07-06T01:57:15;101044.16;;;14.15;86.98
53758;BME280;39674;59.860;30.672;2022-07-06T01:59:57;100997.38;;;13.84;87.12
53758;BME280;39674;59.860;30.672;2022-07-06T02:02:30;101030.88;;;14.15;87.79
53758;BME280;39674;59.860;30.672;2022-07-06T02:05:06;101096.44;;;14.58;87.97
53758;BME280;39674;59.860;30.672;2022-07-06T02:07:44;101107.19;;;14.71;87.72
53758;BME280;39674;59.860;30.672;2022-07-06T02:10:25;101023.19;;;14.25;87.52
53758;BME280;39674;59.860;30.672;2022-07-06T02:12:55;101008.09;;;14.11;87.66
53758;BME280;39674;59.860;30.672;2022-07-06T02:15:24;101038.25;;;14.39;87.44
53758;BME280;39674;59.860;30.672;2022-07-06T02:18:04;101056.09;;;14.51;87.31
53758;BME280;39674;59.860;30.672;2022-07-06T02:20:40;100999.94;;;14.14;87.00
53758;BME280;39674;59.860;30.672;2022-07-06T02:23:14;101051.44;;;14.40;86.78
53758;BME280;39674;59.860;30.672;2022-07-06T02:25:54;101067.09;;;14.59;86.86
53758;BME280;39674;59.860;30.672;2022-07-06T02:28:33;101065.81;;;14.67;85.88
53758;BME280;39674;59.860;30.672;2022-07-06T02:31:07;101106.19;;;15.01;85.41
53758;BME280;39674;59.860;30.672;2022-07-06T02:33:46;101101.56;;;14.90;85.35
53758;BME280;39674;59.860;30.672;2022-07-06T02:36:17;100998.03;;;14.31;84.96
53758;BME280;39674;59.860;30.672;2022-07-06T02:38:52;101020.22;;;14.44;84.05
53758;BME280;39674;59.860;30.672;2022-07-06T02:41:25;101106.19;;;15.01;84.16
53758;BME280;39674;59.860;30.672;2022-07-06T02:44:04;101002.22;;;14.35;83.26
53758;BME280;39674;59.860;30.672;2022-07-06T02:47:30;101071.28;;;14.78;82.96
53758;BME280;39674;59.860;30.672;2022-07-06T02:50:12;101001.25;;;14.36;82.22
53758;BME280;39674;59.860;30.672;2022-07-06T02:52:54;101083.44;;;14.82;81.71
53758;BME280;39674;59.860;30.672;2022-07-06T02:55:28;101080.03;;;14.80;81.39
53758;BME280;39674;59.860;30.672;2022-07-06T02:58:02;101046.25;;;14.68;82.14
53758;BME280;39674;59.860;30.672;2022-07-06T03:00:31;101107.09;;;15.14;81.58
53758;BME280;39674;59.860;30.672;2022-07-06T03:03:22;101028.28;;;14.71;80.32
53758;BME280;39674;59.860;30.672;2022-07-06T03:06:10;101097.03;;;15.19;80.02
53758;BME280;39674;59.860;30.672;2022-07-06T03:08:41;101051.50;;;14.97;79.72
53758;BME280;39674;59.860;30.672;2022-07-06T03:11:15;101087.50;;;15.30;78.87
53758;BME280;39674;59.860;30.672;2022-07-06T03:13:50;101018.63;;;14.98;79.50
53758;BME280;39674;59.860;30.672;2022-07-06T03:16:20;101081.56;;;15.39;78.70
53758;BME280;39674;59.860;30.672;2022-07-06T03:19:02;101092.22;;;15.39;77.67
53758;BME280;39674;59.860;30.672;2022-07-06T03:21:33;101037.19;;;15.12;77.82
53758;BME280;39674;59.860;30.672;2022-07-06T03:24:04;101015.50;;;15.18;77.68
53758;BME280;39674;59.860;30.672;2022-07-06T03:26:52;101030.44;;;15.34;77.42
53758;BME280;39674;59.860;30.672;2022-07-06T03:29:31;100999.13;;;15.24;76.34
53758;BME280;39674;59.860;30.672;2022-07-06T03:32:05;101015.53;;;15.31;75.65
53758;BME280;39674;59.860;30.672;2022-07-06T03:34:35;101014.06;;;15.40;76.59
53758;BME280;39674;59.860;30.672;2022-07-06T03:37:09;101083.69;;;15.74;75.98
53758;BME280;39674;59.860;30.672;2022-07-06T03:39:51;101001.56;;;15.28;76.18
53758;BME280;39674;59.860;30.672;2022-07-06T03:42:27;101079.94;;;15.77;75.68
53758;BME280;39674;59.860;30.672;2022-07-06T03:44:59;100998.50;;;15.34;75.47
53758;BME280;39674;59.860;30.672;2022-07-06T03:47:33;101019.00;;;15.59;76.24
53758;BME280;39674;59.860;30.672;2022-07-06T03:50:10;101009.00;;;15.63;75.99
53758;BME280;39674;59.860;30.672;2022-07-06T03:52:50;101016.47;;;15.57;75.18
53758;BME280;39674;59.860;30.672;2022-07-06T03:55:23;101093.25;;;16.04;75.31
53758;BME280;39674;59.860;30.672;2022-07-06T03:58:03;101094.53;;;16.11;75.55
53758;BME280;39674;59.860;30.672;2022-07-06T04:00:36;101129.72;;;16.42;74.96
53758;BME280;39674;59.860;30.672;2022-07-06T04:03:13;101070.66;;;16.10;74.83
53758;BME280;39674;59.860;30.672;2022-07-06T04:05:48;101073.84;;;16.02;74.89
53758;BME280;39674;59.860;30.672;2022-07-06T04:08:32;101070.22;;;16.03;75.12
53758;BME280;39674;59.860;30.672;2022-07-06T04:11:07;101090.47;;;16.18;75.23
53758;BME280;39674;59.860;30.672;2022-07-06T04:13:38;101123.00;;;16.49;75.19
53758;BME280;39674;59.860;30.672;2022-07-06T04:16:17;101058.06;;;16.12;74.63
53758;BME280;39674;59.860;30.672;2022-07-06T04:18:54;101076.72;;;16.25;74.93
53758;BME280;39674;59.860;30.672;2022-07-06T04:21:24;101128.00;;;16.67;74.71
53758;BME280;39674;59.860;30.672;2022-07-06T04:23:54;101081.94;;;16.39;74.63
53758;BME280;39674;59.860;30.672;2022-07-06T04:26:29;101016.72;;;16.06;75.29
53758;BME280;39674;59.860;30.672;2022-07-06T04:29:58;101020.53;;;16.28;74.23
53758;BME280;39674;59.860;30.672;2022-07-06T04:32:53;101036.09;;;16.34;73.97
53758;BME280;39674;59.860;30.672;2022-07-06T04:36:36;101119.59;;;17.10;74.25
53758;BME280;39674;59.860;30.672;2022-07-06T04:44:27;101045.91;;;17.21;71.82
53758;BME280;39674;59.860;30.672;2022-07-06T04:47:45;101143.63;;;18.07;70.81
53758;BME280;39674;59.860;30.672;2022-07-06T04:53:49;101054.97;;;17.78;69.13
53758;BME280;39674;59.860;30.672;2022-07-06T04:56:40;101079.66;;;17.93;69.82
53758;BME280;39674;59.860;30.672;2022-07-06T05:47:30;101140.50;;;20.25;63.87
53758;BME280;39674;59.860;30.672;2022-07-06T05:54:17;101146.47;;;20.90;59.62
53758;BME280;39674;59.860;30.672;2022-07-06T06:07:14;101108.03;;;20.80;58.06
53758;BME280;39674;59.860;30.672;2022-07-06T06:10:13;101156.16;;;21.12;56.34
53758;BME280;39674;59.860;30.672;2022-07-06T07:19:01;101075.28;;;23.79;46.62
53758;BME280;39674;59.860;30.672;2022-07-06T08:43:27;101078.00;;;23.43;45.68
53758;BME280;39674;59.860;30.672;2022-07-06T08:56:08;101051.06;;;22.79;45.16
53758;BME280;39674;59.860;30.672;2022-07-06T09:23:43;100984.53;;;24.90;38.53
53758;BME280;39674;59.860;30.672;2022-07-06T09:50:17;101050.09;;;26.16;38.41
53758;BME280;39674;59.860;30.672;2022-07-06T09:57:02;100963.13;;;25.05;37.90
53758;BME280;39674;59.860;30.672;2022-07-06T10:33:50;100919.06;;;24.21;39.16
53758;BME280;39674;59.860;30.672;2022-07-06T10:38:31;100939.53;;;24.40;40.28
53758;BME280;39674;59.860;30.672;2022-07-06T10:41:49;100909.56;;;25.09;39.20
53758;BME280;39674;59.860;30.672;2022-07-06T11:04:28;100950.31;;;26.45;35.11
53758;BME280;39674;59.860;30.672;2022-07-06T11:07:14;100972.44;;;26.17;35.39
53758;BME280;39674;59.860;30.672;2022-07-06T11:10:01;101006.88;;;26.39;35.69
53758;BME280;39674;59.860;30.672;2022-07-06T11:12:30;101004.03;;;26.64;35.24
53758;BME280;39674;59.860;30.672;2022-07-06T11:15:08;100983.94;;;26.19;36.12
53758;BME280;39674;59.860;30.672;2022-07-06T11:18:16;101015.47;;;25.95;36.33
53758;BME280;39674;59.860;30.672;2022-07-06T11:21:17;101018.56;;;25.51;37.83
53758;BME280;39674;59.860;30.672;2022-07-06T11:23:48;100985.09;;;25.10;39.19
53758;BME280;39674;59.860;30.672;2022-07-06T11:26:18;100982.38;;;25.02;38.72
53758;BME280;39674;59.860;30.672;2022-07-06T11:28:48;100970.75;;;25.02;38.90
53758;BME280;39674;59.860;30.672;2022-07-06T11:31:33;101012.59;;;24.97;38.84
53758;BME280;39674;59.860;30.672;2022-07-06T11:34:07;101017.19;;;25.05;39.11
53758;BME280;39674;59.860;30.672;2022-07-06T11:36:38;101016.25;;;24.72;41.17
53758;BME280;39674;59.860;30.672;2022-07-06T11:39:09;101017.78;;;24.66;40.81
53758;BME280;39674;59.860;30.672;2022-07-06T11:41:39;101020.41;;;24.58;40.61
53758;BME280;39674;59.860;30.672;2022-07-06T11:44:18;100904.84;;;23.76;41.70
53758;BME280;39674;59.860;30.672;2022-07-06T11:47:29;100951.38;;;24.04;41.16
53758;BME280;39674;59.860;30.672;2022-07-06T11:50:09;100970.22;;;23.96;41.69
53758;BME280;39674;59.860;30.672;2022-07-06T11:52:42;100986.28;;;23.79;42.06
53758;BME280;39674;59.860;30.672;2022-07-06T11:58:18;100996.31;;;23.69;43.29
53758;BME280;39674;59.860;30.672;2022-07-06T12:01:05;100988.50;;;23.84;43.41
53758;BME280;39674;59.860;30.672;2022-07-06T12:03:34;100973.06;;;23.68;42.57
53758;BME280;39674;59.860;30.672;2022-07-06T12:06:03;101009.66;;;23.97;43.10
53758;BME280;39674;59.860;30.672;2022-07-06T12:08:43;101007.72;;;24.07;43.28
53758;BME280;39674;59.860;30.672;2022-07-06T12:11:17;101000.16;;;24.11;43.33
53758;BME280;39674;59.860;30.672;2022-07-06T12:13:47;100959.31;;;23.79;41.88
53758;BME280;39674;59.860;30.672;2022-07-06T12:16:19;101000.16;;;24.11;42.79
53758;BME280;39674;59.860;30.672;2022-07-06T12:18:57;101008.38;;;24.09;42.62
53758;BME280;39674;59.860;30.672;2022-07-06T12:21:43;100998.72;;;24.33;40.83
53758;BME280;39674;59.860;30.672;2022-07-06T12:24:26;100906.47;;;23.34;41.81
53758;BME280;39674;59.860;30.672;2022-07-06T12:27:11;100892.41;;;23.22;42.65
53758;BME280;39674;59.860;30.672;2022-07-06T12:34:29;100951.31;;;23.96;42.27
53758;BME280;39674;59.860;30.672;2022-07-06T12:38:00;100890.56;;;23.83;41.32
53758;BME280;39674;59.860;30.672;2022-07-06T12:41:06;100868.94;;;23.75;41.11
53758;BME280;39674;59.860;30.672;2022-07-06T12:44:26;100960.59;;;24.36;41.94
53758;BME280;39674;59.860;30.672;2022-07-06T12:47:27;100939.09;;;23.83;41.50
53758;BME280;39674;59.860;30.672;2022-07-06T13:58:43;100888.81;;;22.41;46.36
53758;BME280;39674;59.860;30.672;2022-07-06T14:01:51;100928.06;;;22.62;46.83
53758;BME280;39674;59.860;30.672;2022-07-06T14:05:31;100852.34;;;22.28;46.53
53758;BME280;39674;59.860;30.672;2022-07-06T14:08:16;100919.13;;;22.79;46.03
53758;BME280;39674;59.860;30.672;2022-07-06T14:11:10;100913.13;;;22.85;46.39
53758;BME280;39674;59.860;30.672;2022-07-06T14:14:01;100909.13;;;22.89;46.33
53758;BME280;39674;59.860;30.672;2022-07-06T14:16:46;100944.53;;;22.95;46.06
53758;BME280;39674;59.860;30.672;2022-07-06T14:19:47;100854.66;;;22.23;46.22
53758;BME280;39674;59.860;30.672;2022-07-06T14:22:38;100872.47;;;22.24;47.15
53758;BME280;39674;59.860;30.672;2022-07-06T14:25:39;100905.50;;;22.44;46.91
53758;BME280;39674;59.860;30.672;2022-07-06T14:28:26;100893.06;;;22.34;46.75
53758;BME280;39674;59.860;30.672;2022-07-06T14:31:40;100892.66;;;22.38;47.17
53758;BME280;39674;59.860;30.672;2022-07-06T14:34:21;100932.81;;;22.68;46.48
53758;BME280;39674;59.860;30.672;2022-07-06T14:37:07;100896.47;;;22.36;47.08
53758;BME280;39674;59.860;30.672;2022-07-06T14:40:30;100846.06;;;21.92;47.31
53758;BME280;39674;59.860;30.672;2022-07-06T14:43:10;100895.38;;;22.28;47.00
53758;BME280;39674;59.860;30.672;2022-07-06T14:45:43;100929.31;;;22.67;46.73
53758;BME280;39674;59.860;30.672;2022-07-06T14:48:32;100896.38;;;22.27;47.44
53758;BME280;39674;59.860;30.672;2022-07-06T14:52:40;100879.38;;;22.09;46.57
53758;BME280;39674;59.860;30.672;2022-07-06T14:54:20;100858.19;;;21.96;47.50
53758;BME280;39674;59.860;30.672;2022-07-06T14:57:10;100911.53;;;22.28;47.37
53758;BME280;39674;59.860;30.672;2022-07-06T14:59:50;100848.09;;;21.80;47.53
53758;BME280;39674;59.860;30.672;2022-07-06T15:02:39;100892.00;;;22.26;47.45
53758;BME280;39674;59.860;30.672;2022-07-06T15:05:22;100862.31;;;22.18;47.94
53758;BME280;39674;59.860;30.672;2022-07-06T15:07:57;100900.66;;;22.48;47.39
53758;BME280;39674;59.860;30.672;2022-07-06T15:10:45;100882.59;;;22.40;47.76
53758;BME280;39674;59.860;30.672;2022-07-06T15:13:17;100863.66;;;22.32;47.97
53758;BME280;39674;59.860;30.672;2022-07-06T15:15:46;100900.75;;;22.56;47.92
53758;BME280;39674;59.860;30.672;2022-07-06T15:18:24;100856.41;;;22.33;48.49
53758;BME280;39674;59.860;30.672;2022-07-06T15:21:02;100883.19;;;22.52;48.24
53758;BME280;39674;59.860;30.672;2022-07-06T15:23:48;100855.41;;;22.34;48.62
53758;BME280;39674;59.860;30.672;2022-07-06T15:26:30;100860.50;;;22.37;48.35
53758;BME280;39674;59.860;30.672;2022-07-06T15:29:25;100876.66;;;22.55;48.67
53758;BME280;39674;59.860;30.672;2022-07-06T15:32:09;100787.34;;;21.87;49.58
53758;BME280;39674;59.860;30.672;2022-07-06T15:34:59;100798.19;;;21.95;48.85
53758;BME280;39674;59.860;30.672;2022-07-06T15:37:52;100889.66;;;22.59;48.42
53758;BME280;39674;59.860;30.672;2022-07-06T15:41:28;100843.56;;;22.26;48.40
53758;BME280;39674;59.860;30.672;2022-07-06T15:44:13;100848.25;;;22.06;47.61
53758;BME280;39674;59.860;30.672;2022-07-06T15:50:04;100855.84;;;22.11;47.26
53758;BME280;39674;59.860;30.672;2022-07-06T15:52:46;100858.38;;;22.12;47.86
53758;BME280;39674;59.860;30.672;2022-07-06T15:55:34;100816.69;;;21.80;48.28
53758;BME280;39674;59.860;30.672;2022-07-06T15:58:17;100788.59;;;21.65;47.98
53758;BME280;39674;59.860;30.672;2022-07-06T16:01:09;100789.94;;;21.51;47.83
53758;BME280;39674;59.860;30.672;2022-07-06T16:04:02;100878.09;;;22.03;47.62
53758;BME280;39674;59.860;30.672;2022-07-06T16:07:13;100839.03;;;21.81;48.29
53758;BME280;39674;59.860;30.672;2022-07-06T16:09:59;100819.03;;;21.66;48.20
53758;BME280;39674;59.860;30.672;2022-07-06T16:12:39;100810.59;;;21.41;47.75
53758;BME280;39674;59.860;30.672;2022-07-06T16:15:30;100826.44;;;21.44;46.78
53758;BME280;39674;59.860;30.672;2022-07-06T16:18:39;100843.66;;;21.51;48.29
53758;BME280;39674;59.860;30.672;2022-07-06T16:21:25;100771.13;;;21.13;47.80
53758;BME280;39674;59.860;30.672;2022-07-06T16:24:30;100840.81;;;21.62;47.50
53758;BME280;39674;59.860;30.672;2022-07-06T16:27:11;100845.38;;;21.52;47.92
53758;BME280;39674;59.860;30.672;2022-07-06T16:30:24;100849.03;;;21.51;48.17
53758;BME280;39674;59.860;30.672;2022-07-06T16:33:06;100789.97;;;21.04;47.73
53758;BME280;39674;59.860;30.672;2022-07-06T16:36:03;100846.56;;;21.40;47.69
53758;BME280;39674;59.860;30.672;2022-07-06T16:38:56;100849.13;;;21.31;48.00
53758;BME280;39674;59.860;30.672;2022-07-06T16:41:41;100773.75;;;20.76;48.06
53758;BME280;39674;59.860;30.672;2022-07-06T16:44:47;100836.97;;;21.17;48.45
53758;BME280;39674;59.860;30.672;2022-07-06T16:47:37;100810.72;;;21.02;48.47
53758;BME280;39674;59.860;30.672;2022-07-06T16:50:17;100769.25;;;20.66;49.57
53758;BME280;39674;59.860;30.672;2022-07-06T16:53:09;100833.06;;;21.12;49.08
53758;BME280;39674;59.860;30.672;2022-07-06T16:56:19;100793.41;;;20.86;48.58
53758;BME280;39674;59.860;30.672;2022-07-06T16:59:09;100827.13;;;20.98;48.58
53758;BME280;39674;59.860;30.672;2022-07-06T17:02:37;100778.00;;;20.78;49.48
53758;BME280;39674;59.860;30.672;2022-07-06T17:05:31;100828.25;;;21.15;49.76
53758;BME280;39674;59.860;30.672;2022-07-06T17:08:26;100810.63;;;20.93;50.02
53758;BME280;39674;59.860;30.672;2022-07-06T17:11:24;100845.47;;;21.23;50.62
53758;BME280;39674;59.860;30.672;2022-07-06T17:14:30;100829.38;;;21.13;49.69
53758;BME280;39674;59.860;30.672;2022-07-06T17:17:42;100810.03;;;20.99;50.11
53758;BME280;39674;59.860;30.672;2022-07-06T17:20:31;100858.47;;;21.17;49.90
53758;BME280;39674;59.860;30.672;2022-07-06T17:23:54;100850.31;;;20.99;50.94
53758;BME280;39674;59.860;30.672;2022-07-06T17:30:18;100861.91;;;20.90;51.57
53758;BME280;39674;59.860;30.672;2022-07-06T17:33:14;100827.88;;;20.61;50.58
53758;BME280;39674;59.860;30.672;2022-07-06T17:36:43;100739.34;;;20.22;50.88
53758;BME280;39674;59.860;30.672;2022-07-06T17:43:06;100787.91;;;20.39;50.58
53758;BME280;39674;59.860;30.672;2022-07-06T17:46:00;100745.28;;;20.06;50.90
53758;BME280;39674;59.860;30.672;2022-07-06T17:48:43;100782.81;;;20.16;50.78
53758;BME280;39674;59.860;30.672;2022-07-06T17:51:31;100810.63;;;20.34;50.79
53758;BME280;39674;59.860;30.672;2022-07-06T17:54:40;100811.88;;;20.30;51.05
53758;BME280;39674;59.860;30.672;2022-07-06T17:57:20;100784.75;;;19.94;51.24
53758;BME280;39674;59.860;30.672;2022-07-06T18:00:12;100809.06;;;20.12;51.25
53758;BME280;39674;59.860;30.672;2022-07-06T18:03:12;100857.63;;;20.29;51.51
53758;BME280;39674;59.860;30.672;2022-07-06T18:06:02;100780.56;;;19.70;51.63
53758;BME280;39674;59.860;30.672;2022-07-06T18:09:09;100828.47;;;19.85;51.96
53758;BME280;39674;59.860;30.672;2022-07-06T18:11:54;100769.06;;;19.39;52.56
53758;BME280;39674;59.860;30.672;2022-07-06T18:14:27;100819.50;;;19.65;52.99
53758;BME280;39674;59.860;30.672;2022-07-06T18:17:10;100818.91;;;19.61;52.70
53758;BME280;39674;59.860;30.672;2022-07-06T18:19:48;100817.66;;;19.65;52.81
53758;BME280;39674;59.860;30.672;2022-07-06T18:22:30;100748.41;;;19.20;53.30
53758;BME280;39674;59.860;30.672;2022-07-06T18:25:28;100814.34;;;19.52;52.91
53758;BME280;39674;59.860;30.672;2022-07-06T18:28:19;100819.56;;;19.44;53.39
53758;BME280;39674;59.860;30.672;2022-07-06T18:31:23;100823.56;;;19.59;52.97
53758;BME280;39674;59.860;30.672;2022-07-06T18:34:18;100751.53;;;19.25;53.03
53758;BME280;39674;59.860;30.672;2022-07-06T18:37:27;100864.59;;;19.91;53.31
53758;BME280;39674;59.860;30.672;2022-07-06T18:40:02;100844.63;;;19.73;53.52
53758;BME280;39674;59.860;30.672;2022-07-06T18:43:00;100857.22;;;19.83;53.82
53758;BME280;39674;59.860;30.672;2022-07-06T18:45:30;100787.38;;;19.34;54.02
53758;BME280;39674;59.860;30.672;2022-07-06T18:48:15;100867.38;;;19.79;54.24
53758;BME280;39674;59.860;30.672;2022-07-06T18:50:44;100854.66;;;19.81;54.25
53758;BME280;39674;59.860;30.672;2022-07-06T18:53:35;100742.72;;;19.03;53.90
53758;BME280;39674;59.860;30.672;2022-07-06T18:56:16;100820.28;;;19.55;53.46
53758;BME280;39674;59.860;30.672;2022-07-06T18:59:15;100785.63;;;19.23;53.57
53758;BME280;39674;59.860;30.672;2022-07-06T19:01:58;100846.69;;;19.60;53.23
53758;BME280;39674;59.860;30.672;2022-07-06T19:04:42;100854.28;;;19.55;53.76
53758;BME280;39674;59.860;30.672;2022-07-06T19:07:35;100811.34;;;19.35;53.32
53758;BME280;39674;59.860;30.672;2022-07-06T19:10:39;100791.00;;;19.23;53.64
53758;BME280;39674;59.860;30.672;2022-07-06T19:13:47;100865.53;;;19.49;54.05
53758;BME280;39674;59.860;30.672;2022-07-06T19:16:59;100818.59;;;19.23;53.93
53758;BME280;39674;59.860;30.672;2022-07-06T19:23:07;100736.97;;;18.44;55.33
53758;BME280;39674;59.860;30.672;2022-07-06T19:25:52;100857.66;;;19.05;55.77
53758;BME280;39674;59.860;30.672;2022-07-06T19:28:35;100855.38;;;19.00;56.11
53758;BME280;39674;59.860;30.672;2022-07-06T19:31:16;100767.00;;;18.48;56.35
53758;BME280;39674;59.860;30.672;2022-07-06T19:34:00;100817.09;;;18.67;56.48
53758;BME280;39674;59.860;30.672;2022-07-06T19:36:39;100814.69;;;18.64;56.41
53758;BME280;39674;59.860;30.672;2022-07-06T19:39:32;100751.41;;;18.21;56.46
53758;BME280;39674;59.860;30.672;2022-07-06T19:42:09;100812.63;;;18.56;56.63
53758;BME280;39674;59.860;30.672;2022-07-06T19:44:56;100828.06;;;18.64;56.63
53758;BME280;39674;59.860;30.672;2022-07-06T19:47:52;100854.19;;;18.93;55.89
53758;BME280;39674;59.860;30.672;2022-07-06T19:50:25;100737.34;;;18.19;55.92
53758;BME280;39674;59.860;30.672;2022-07-06T19:53:24;100836.81;;;18.87;55.87
53758;BME280;39674;59.860;30.672;2022-07-06T19:56:01;100767.16;;;18.35;56.47
53758;BME280;39674;59.860;30.672;2022-07-06T19:58:57;100840.78;;;18.72;56.85
53758;BME280;39674;59.860;30.672;2022-07-06T20:01:30;100794.34;;;18.40;56.63
53758;BME280;39674;59.860;30.672;2022-07-06T20:04:19;100725.53;;;18.00;56.86
53758;BME280;39674;59.860;30.672;2022-07-06T20:07:58;100809.22;;;18.33;57.46
53758;BME280;39674;59.860;30.672;2022-07-06T20:10:09;100848.28;;;18.57;57.39
53758;BME280;39674;59.860;30.672;2022-07-06T20:12:40;100835.66;;;18.48;57.60
53758;BME280;39674;59.860;30.672;2022-07-06T20:15:18;100785.78;;;18.25;57.94
53758;BME280;39674;59.860;30.672;2022-07-06T20:18:05;100827.38;;;18.51;57.81
53758;BME280;39674;59.860;30.672;2022-07-06T20:21:06;100723.38;;;17.71;58.21
53758;BME280;39674;59.860;30.672;2022-07-06T20:23:38;100783.06;;;18.04;58.78
53758;BME280;39674;59.860;30.672;2022-07-06T20:26:15;100781.88;;;17.97;58.86
53758;BME280;39674;59.860;30.672;2022-07-06T20:28:50;100782.22;;;17.92;59.58
53758;BME280;39674;59.860;30.672;2022-07-06T20:31:23;100717.59;;;17.55;59.25
53758;BME280;39674;59.860;30.672;2022-07-06T20:33:55;100810.41;;;18.08;59.74
53758;BME280;39674;59.860;30.672;2022-07-06T20:36:37;100698.41;;;17.49;59.92
53758;BME280;39674;59.860;30.672;2022-07-06T20:39:35;100810.72;;;18.15;60.30
53758;BME280;39674;59.860;30.672;2022-07-06T20:42:11;100706.22;;;17.41;60.65
53758;BME280;39674;59.860;30.672;2022-07-06T20:44:40;100819.84;;;18.23;59.59
53758;BME280;39674;59.860;30.672;2022-07-06T20:47:41;100784.41;;;17.87;60.42
53758;BME280;39674;59.860;30.672;2022-07-06T20:50:34;100782.97;;;17.72;61.00
53758;BME280;39674;59.860;30.672;2022-07-06T20:53:15;100709.72;;;17.30;61.51
53758;BME280;39674;59.860;30.672;2022-07-06T20:55:58;100782.47;;;17.78;61.60
53758;BME280;39674;59.860;30.672;2022-07-06T20:59:10;100784.81;;;17.71;61.67
53758;BME280;39674;59.860;30.672;2022-07-06T21:02:03;100823.06;;;17.83;62.27
53758;BME280;39674;59.860;30.672;2022-07-06T21:07:56;100791.50;;;17.54;62.43
53758;BME280;39674;59.860;30.672;2022-07-06T21:10:45;100747.94;;;17.31;62.58
53758;BME280;39674;59.860;30.672;2022-07-06T21:13:28;100770.75;;;17.46;62.54
53758;BME280;39674;59.860;30.672;2022-07-06T21:16:31;100703.31;;;17.10;62.22
53758;BME280;39674;59.860;30.672;2022-07-06T21:19:31;100773.78;;;17.53;61.94
53758;BME280;39674;59.860;30.672;2022-07-06T21:22:22;100771.00;;;17.43;62.91
53758;BME280;39674;59.860;30.672;2022-07-06T21:25:57;100775.63;;;17.41;62.94
53758;BME280;39674;59.860;30.672;2022-07-06T21:29:20;100774.16;;;17.37;63.53